Time;durP1;ratioP1;P1;durP2;ratioP2;P2;SDS_P1;SDS_P2;PMS_P1;PMS_P2;Temp;Humidity;BMP_temperature;BMP_pressure;BME280_temperature;BME280_humidity;BME280_pressure;Samples;Min_cycle;Max_cycle;Signal;HPM_P1;HPM_P2
2023/03/13 00:00:08;;;;;;;16.63;10.30;;;5.60;79.30;;;;;;6281867;27;20232;-80
2023/03/13 00:03:17;;;;;;;14.30;10.80;;;5.60;79.30;;;;;;6202996;28;20271;-81
2023/03/13 00:06:20;;;;;;;14.43;10.60;;;5.80;79.00;;;;;;6196910;28;20273;-81
2023/03/13 00:09:23;;;;;;;18.70;10.77;;;5.90;78.80;;;;;;6174889;28;20245;-81
2023/03/13 00:12:28;;;;;;;20.67;10.67;;;5.80;78.90;;;;;;6196059;27;20239;-82
2023/03/13 00:15:31;;;;;;;16.57;11.43;;;5.80;79.00;;;;;;6158729;28;20875;-80
2023/03/13 00:18:35;;;;;;;21.07;10.53;;;5.90;78.90;;;;;;6207313;28;20248;-80
2023/03/13 00:21:41;;;;;;;13.87;10.50;;;5.90;78.90;;;;;;6157804;28;20243;-79
2023/03/13 00:24:54;;;;;;;13.97;10.77;;;5.90;79.00;;;;;;6230431;28;20246;-80
2023/03/13 00:27:59;;;;;;;15.30;10.83;;;5.90;79.10;;;;;;6277581;28;20236;-79
2023/03/13 00:31:03;;;;;;;15.37;10.33;;;6.00;78.90;;;;;;6287244;28;20237;-83
2023/03/13 00:34:07;;;;;;;16.37;10.97;;;6.00;79.10;;;;;;6287578;28;20630;-80
2023/03/13 00:37:10;;;;;;;13.83;11.07;;;6.00;79.10;;;;;;6300356;28;20362;-81
2023/03/13 00:40:14;;;;;;;17.17;10.90;;;6.00;79.30;;;;;;6288534;27;20334;-80
2023/03/13 00:43:18;;;;;;;15.13;10.37;;;6.00;79.50;;;;;;6288342;28;20656;-82
2023/03/13 00:46:23;;;;;;;18.83;10.60;;;6.00;79.50;;;;;;6296447;28;20709;-79
2023/03/13 00:49:26;;;;;;;14.77;10.50;;;6.00;79.60;;;;;;6288711;28;20628;-80
2023/03/13 00:52:29;;;;;;;19.13;10.10;;;6.10;79.70;;;;;;6293302;28;20241;-79
2023/03/13 00:55:32;;;;;;;20.33;11.13;;;6.00;79.70;;;;;;6287921;28;20233;-80
2023/03/13 00:58:38;;;;;;;25.33;11.57;;;6.10;79.70;;;;;;6297139;28;20234;-78
2023/03/13 01:01:42;;;;;;;21.63;10.93;;;6.20;79.50;;;;;;6289396;27;20239;-80
2023/03/13 01:04:45;;;;;;;14.43;10.57;;;6.20;79.40;;;;;;6287593;28;20229;-79
2023/03/13 01:07:49;;;;;;;13.47;10.03;;;6.30;79.10;;;;;;6296649;28;20602;-81
2023/03/13 01:10:58;;;;;;;15.67;10.60;;;6.20;79.10;;;;;;6279905;28;20263;-82
2023/03/13 01:14:04;;;;;;;11.93;10.50;;;6.20;79.20;;;;;;6269024;28;20896;-82
2023/03/13 01:17:07;;;;;;;17.10;10.80;;;6.20;79.20;;;;;;6287183;28;20256;-81
2023/03/13 01:20:12;;;;;;;12.73;11.03;;;6.20;79.20;;;;;;6295276;28;20229;-78
2023/03/13 01:23:15;;;;;;;12.37;10.50;;;6.20;79.10;;;;;;6286295;28;20237;-80
2023/03/13 01:26:20;;;;;;;13.37;10.33;;;6.20;79.30;;;;;;6287909;28;20225;-83
2023/03/13 01:29:26;;;;;;;14.63;11.00;;;6.20;79.20;;;;;;6241567;28;20286;-79
2023/03/13 01:32:34;;;;;;;17.83;10.57;;;6.20;79.40;;;;;;6187829;28;20814;-80
2023/03/13 01:35:38;;;;;;;15.97;11.47;;;6.20;79.30;;;;;;6177740;28;20253;-79
2023/03/13 01:38:41;;;;;;;18.57;11.50;;;6.20;79.30;;;;;;6210436;28;20237;-81
2023/03/13 01:41:44;;;;;;;16.53;10.77;;;6.20;79.20;;;;;;6207170;28;20402;-81
2023/03/13 01:44:53;;;;;;;12.87;10.80;;;6.20;79.30;;;;;;6218911;28;20248;-80
2023/03/13 01:47:57;;;;;;;19.63;10.77;;;6.20;79.10;;;;;;6176452;28;20241;-82
2023/03/13 01:51:03;;;;;;;12.87;10.17;;;6.30;79.00;;;;;;6193979;28;20246;-80
2023/03/13 01:54:09;;;;;;;16.23;9.77;;;6.30;78.90;;;;;;6279684;28;20233;-80
2023/03/13 01:57:18;;;;;;;12.37;9.77;;;6.30;78.70;;;;;;6291505;28;20716;-80
2023/03/13 02:00:26;;;;;;;16.97;10.87;;;6.30;78.60;;;;;;6305463;28;20238;-80
2023/03/13 02:03:30;;;;;;;12.53;10.30;;;6.30;78.50;;;;;;6289461;28;20733;-78
2023/03/13 02:06:38;;;;;;;16.77;9.07;;;6.30;78.20;;;;;;6298859;28;20237;-78
2023/03/13 02:09:44;;;;;;;12.63;9.10;;;6.30;78.40;;;;;;6288584;28;20234;-79
2023/03/13 02:12:48;;;;;;;13.13;9.97;;;6.20;78.50;;;;;;6269281;28;20232;-80
2023/03/13 02:15:52;;;;;;;10.10;9.20;;;6.30;78.40;;;;;;6281284;28;20237;-81
2023/03/13 02:18:56;;;;;;;15.40;10.23;;;6.30;78.50;;;;;;6291041;28;20230;-79
2023/03/13 02:22:06;;;;;;;17.70;10.43;;;6.20;78.60;;;;;;6285418;28;20327;-80
2023/03/13 02:25:18;;;;;;;12.10;9.10;;;6.20;78.50;;;;;;6271173;28;20316;-80
2023/03/13 02:28:27;;;;;;;12.03;9.53;;;6.20;78.40;;;;;;6273611;28;20239;-78
2023/03/13 02:31:30;;;;;;;15.90;9.57;;;6.30;78.40;;;;;;6286117;28;20257;-79
2023/03/13 02:34:36;;;;;;;12.17;9.47;;;6.30;78.50;;;;;;6289926;28;20244;-79
2023/03/13 02:37:41;;;;;;;15.63;9.93;;;6.20;78.70;;;;;;6288171;28;20632;-80
2023/03/13 02:40:47;;;;;;;12.57;9.90;;;6.20;78.90;;;;;;6290525;28;20253;-81
2023/03/13 02:43:51;;;;;;;12.60;10.27;;;6.20;78.70;;;;;;6290154;28;20237;-81
2023/03/13 02:46:54;;;;;;;11.13;9.83;;;6.20;78.80;;;;;;6289325;28;20850;-78
2023/03/13 02:49:58;;;;;;;17.83;10.00;;;6.10;78.90;;;;;;6288556;28;20237;-80
2023/03/13 02:53:04;;;;;;;17.73;9.80;;;6.20;78.90;;;;;;6291809;28;20732;-80
2023/03/13 02:56:07;;;;;;;14.00;9.63;;;6.20;79.00;;;;;;6259340;28;20237;-80
2023/03/13 02:59:12;;;;;;;14.50;9.33;;;6.20;78.70;;;;;;6181952;28;20241;-79
2023/03/13 03:02:15;;;;;;;17.63;10.67;;;6.20;78.80;;;;;;6205752;28;20321;-81
2023/03/13 03:05:19;;;;;;;12.30;10.43;;;6.20;78.80;;;;;;6156901;28;20313;-77
2023/03/13 03:08:22;;;;;;;16.30;9.47;;;6.30;78.70;;;;;;6164482;28;20286;-80
2023/03/13 03:11:25;;;;;;;17.57;9.43;;;6.30;78.50;;;;;;6176226;28;20253;-78
2023/03/13 03:14:32;;;;;;;15.23;9.13;;;6.40;78.40;;;;;;6204803;27;20922;-79
2023/03/13 03:17:35;;;;;;;14.00;8.77;;;6.40;78.40;;;;;;6182019;28;20276;-81
2023/03/13 03:20:38;;;;;;;16.83;8.77;;;6.40;78.40;;;;;;6208200;28;20288;-81
2023/03/13 03:23:41;;;;;;;12.87;8.70;;;6.40;78.30;;;;;;6283004;28;20237;-80
2023/03/13 03:26:45;;;;;;;13.17;10.10;;;6.50;78.30;;;;;;6285904;28;20283;-80
2023/03/13 03:29:50;;;;;;;15.10;9.30;;;6.50;78.10;;;;;;6289007;28;20220;-78
2023/03/13 03:32:53;;;;;;;14.43;9.17;;;6.50;78.10;;;;;;6294863;28;20247;-81
2023/03/13 03:35:59;;;;;;;13.97;8.90;;;6.50;78.30;;;;;;6281680;27;20229;-80
2023/03/13 03:39:04;;;;;;;14.80;9.50;;;6.50;78.20;;;;;;6287513;28;20259;-79
2023/03/13 03:42:08;;;;;;;9.13;8.00;;;6.50;78.40;;;;;;6280218;28;20728;-80
2023/03/13 03:45:13;;;;;;;15.80;7.93;;;6.50;78.50;;;;;;6288984;28;20294;-81
2023/03/13 03:48:16;;;;;;;12.07;7.90;;;6.50;78.50;;;;;;6278587;28;20841;-81
2023/03/13 03:51:22;;;;;;;14.47;7.90;;;6.50;78.60;;;;;;6307208;28;20236;-77
2023/03/13 03:54:26;;;;;;;10.03;8.27;;;6.50;78.60;;;;;;6319014;28;20551;-79
2023/03/13 03:57:29;;;;;;;12.20;8.13;;;6.50;78.60;;;;;;6324568;28;20221;-77
2023/03/13 04:00:34;;;;;;;13.67;7.70;;;6.50;78.70;;;;;;6320051;28;20221;-73
2023/03/13 04:03:37;;;;;;;11.63;8.20;;;6.60;78.60;;;;;;6319850;28;20239;-78
2023/03/13 04:06:40;;;;;;;13.53;7.60;;;6.60;78.70;;;;;;6295963;28;20229;-80
2023/03/13 04:09:43;;;;;;;11.10;7.00;;;6.60;78.60;;;;;;6299518;28;20224;-81
2023/03/13 04:12:46;;;;;;;17.10;7.67;;;6.60;78.50;;;;;;6300537;28;20229;-79
2023/03/13 04:15:51;;;;;;;11.97;7.37;;;6.60;78.50;;;;;;6288750;28;20233;-79
2023/03/13 04:18:54;;;;;;;12.40;7.07;;;6.60;78.50;;;;;;6280838;28;20233;-79
2023/03/13 04:21:57;;;;;;;13.40;7.00;;;6.60;78.70;;;;;;6287289;28;20344;-82
2023/03/13 04:25:00;;;;;;;18.87;7.27;;;6.60;78.70;;;;;;6308619;28;20221;-77
2023/03/13 04:28:03;;;;;;;10.83;6.83;;;6.60;78.70;;;;;;6239274;28;20251;-80
2023/03/13 04:31:08;;;;;;;9.30;6.87;;;6.60;78.70;;;;;;6240244;28;20313;-76
2023/03/13 04:34:11;;;;;;;14.03;6.90;;;6.60;78.70;;;;;;6178905;28;20232;-77
2023/03/13 04:37:14;;;;;;;19.67;7.67;;;6.60;78.80;;;;;;6203835;28;20239;-81
2023/03/13 04:40:19;;;;;;;11.87;7.00;;;6.60;78.60;;;;;;6202108;28;20275;-82
2023/03/13 04:43:22;;;;;;;13.90;6.43;;;6.70;78.60;;;;;;6122902;28;20721;-80
2023/03/13 04:46:29;;;;;;;8.10;6.77;;;6.60;78.60;;;;;;6164968;28;20352;-80
2023/03/13 04:49:33;;;;;;;15.43;7.07;;;6.70;78.50;;;;;;6215807;28;20302;-81
2023/03/13 04:52:36;;;;;;;12.83;6.57;;;6.70;78.60;;;;;;6286984;28;20240;-81
2023/03/13 04:55:40;;;;;;;15.00;6.83;;;6.60;78.80;;;;;;6278692;28;20229;-80
2023/03/13 04:58:43;;;;;;;13.67;7.63;;;6.60;79.00;;;;;;6279052;28;20240;-80
2023/03/13 05:01:50;;;;;;;18.30;7.43;;;6.60;79.00;;;;;;6276669;28;20241;-80
2023/03/13 05:04:53;;;;;;;15.70;7.50;;;6.70;78.80;;;;;;6287265;28;20756;-81
2023/03/13 05:07:56;;;;;;;18.67;7.50;;;6.70;78.70;;;;;;6283766;28;20233;-81
2023/03/13 05:10:59;;;;;;;17.67;7.30;;;6.70;78.70;;;;;;6286663;28;20237;-79
2023/03/13 05:14:03;;;;;;;21.43;7.77;;;6.80;78.50;;;;;;6274001;28;20220;-79
2023/03/13 05:17:09;;;;;;;19.77;7.63;;;6.80;78.50;;;;;;6281268;28;20241;-79
2023/03/13 05:20:13;;;;;;;14.93;7.53;;;6.80;78.60;;;;;;6269097;28;20234;-79
2023/03/13 05:23:16;;;;;;;17.57;6.77;;;6.90;78.50;;;;;;6278120;28;20237;-81
2023/03/13 05:26:19;;;;;;;19.27;7.73;;;6.80;78.50;;;;;;6269173;28;20244;-79
2023/03/13 05:29:23;;;;;;;22.00;7.97;;;6.80;78.60;;;;;;6273893;28;20245;-80
2023/03/13 05:32:27;;;;;;;16.43;6.57;;;6.80;78.90;;;;;;6260243;28;20241;-80
2023/03/13 05:35:30;;;;;;;19.00;7.50;;;6.80;78.90;;;;;;6258886;28;20226;-80
2023/03/13 05:38:35;;;;;;;17.80;7.57;;;6.80;79.10;;;;;;6251785;28;20244;-81
2023/03/13 05:41:40;;;;;;;18.67;7.00;;;6.90;79.20;;;;;;6247514;28;20242;-79
2023/03/13 05:44:43;;;;;;;19.57;8.70;;;6.90;79.30;;;;;;6259479;28;20864;-80
2023/03/13 05:47:47;;;;;;;17.10;8.03;;;6.80;79.60;;;;;;6260370;28;20724;-78
2023/03/13 05:50:53;;;;;;;20.93;9.43;;;6.80;79.70;;;;;;6265849;28;20240;-80
2023/03/13 05:53:56;;;;;;;19.80;6.90;;;6.80;79.70;;;;;;6186444;28;20246;-81
2023/03/13 05:56:59;;;;;;;17.87;8.63;;;6.80;79.70;;;;;;6177122;28;20225;-79
2023/03/13 06:00:02;;;;;;;17.37;8.43;;;6.90;79.80;;;;;;6161846;28;20673;-80
2023/03/13 06:03:07;;;;;;;21.03;8.23;;;6.90;79.70;;;;;;6182819;28;20724;-79
2023/03/13 06:06:10;;;;;;;17.20;7.43;;;6.80;80.00;;;;;;6174850;28;20240;-79
2023/03/13 06:09:13;;;;;;;13.80;7.90;;;6.90;79.90;;;;;;6156248;28;20235;-81
2023/03/13 06:12:17;;;;;;;20.20;8.27;;;6.90;79.80;;;;;;6186281;28;20236;-80
2023/03/13 06:15:20;;;;;;;21.13;7.40;;;7.00;79.70;;;;;;6212013;28;20236;-80
2023/03/13 06:18:25;;;;;;;18.60;8.00;;;7.00;79.80;;;;;;6268133;28;20234;-80
2023/03/13 06:21:29;;;;;;;15.43;7.63;;;7.00;79.70;;;;;;6302036;27;20234;-79
2023/03/13 06:24:32;;;;;;;24.60;8.60;;;7.00;79.80;;;;;;6286072;28;20250;-78
2023/03/13 06:27:35;;;;;;;14.33;7.53;;;7.00;80.00;;;;;;6262463;28;20323;-82
2023/03/13 06:30:40;;;;;;;19.60;7.80;;;7.00;79.70;;;;;;6277691;28;20240;-81
2023/03/13 06:33:45;;;;;;;22.07;7.80;;;7.00;79.80;;;;;;6277311;28;20241;-79
2023/03/13 06:36:50;;;;;;;12.50;7.20;;;7.00;79.80;;;;;;6272333;28;20237;-79
2023/03/13 06:39:53;;;;;;;17.20;7.97;;;7.00;80.00;;;;;;6276935;28;20229;-78
2023/03/13 06:42:56;;;;;;;19.73;7.90;;;7.00;79.90;;;;;;6280836;28;20252;-79
2023/03/13 06:46:04;;;;;;;19.13;8.40;;;7.00;80.10;;;;;;6279128;28;20328;-77
2023/03/13 06:49:08;;;;;;;16.47;7.67;;;7.10;79.70;;;;;;6269893;28;20234;-80
2023/03/13 06:52:11;;;;;;;21.20;8.27;;;7.20;79.80;;;;;;6269349;28;20242;-78
2023/03/13 06:55:14;;;;;;;16.13;8.13;;;7.20;79.70;;;;;;6272538;28;20237;-80
2023/03/13 06:58:18;;;;;;;21.57;8.20;;;7.20;79.70;;;;;;6279553;28;20230;-79
2023/03/13 07:01:34;;;;;;;19.57;7.63;;;7.20;79.80;;;;;;6271335;28;20791;-79
2023/03/13 07:04:38;;;;;;;16.53;7.90;;;7.30;79.70;;;;;;6275003;28;20242;-78
2023/03/13 07:07:42;;;;;;;17.93;7.83;;;7.20;80.00;;;;;;6255873;28;20226;-78
2023/03/13 07:10:47;;;;;;;18.40;8.70;;;7.30;80.00;;;;;;6271214;28;20620;-77
2023/03/13 07:13:50;;;;;;;16.87;7.57;;;7.40;80.10;;;;;;6281645;28;20230;-80
2023/03/13 07:16:53;;;;;;;20.90;7.33;;;7.40;80.10;;;;;;6285142;28;20240;-79
2023/03/13 07:19:57;;;;;;;22.97;7.90;;;7.50;80.00;;;;;;6280501;28;20734;-78
2023/03/13 07:23:00;;;;;;;12.93;7.70;;;7.40;80.20;;;;;;6269784;28;20234;-77
2023/03/13 07:26:06;;;;;;;22.93;8.53;;;7.40;80.20;;;;;;6273468;28;20722;-78
2023/03/13 07:29:09;;;;;;;23.10;8.27;;;7.50;80.30;;;;;;6276800;28;20241;-79
2023/03/13 07:32:12;;;;;;;19.37;7.50;;;7.50;80.30;;;;;;6286467;28;20233;-81
2023/03/13 07:35:16;;;;;;;18.63;7.93;;;7.50;80.10;;;;;;6290376;28;20230;-80
2023/03/13 07:38:20;;;;;;;17.40;7.60;;;7.50;80.00;;;;;;6258923;28;20230;-78
2023/03/13 07:41:23;;;;;;;21.57;7.80;;;7.50;80.10;;;;;;6281484;28;20239;-79
2023/03/13 07:44:26;;;;;;;16.70;8.03;;;7.60;80.20;;;;;;6290276;27;20760;-79
2023/03/13 07:47:29;;;;;;;21.87;8.07;;;7.60;80.40;;;;;;6276799;28;20335;-78
2023/03/13 07:50:34;;;;;;;13.70;7.40;;;7.60;80.40;;;;;;6284100;28;20244;-79
2023/03/13 07:53:37;;;;;;;19.77;8.43;;;7.70;80.40;;;;;;6290711;28;20243;-80
2023/03/13 07:56:40;;;;;;;20.93;7.67;;;7.80;80.20;;;;;;6294533;28;20237;-80
2023/03/13 07:59:43;;;;;;;14.43;7.50;;;7.80;80.30;;;;;;6279657;28;20233;-79
2023/03/13 08:02:46;;;;;;;15.63;7.17;;;7.80;80.60;;;;;;6288257;27;20240;-80
2023/03/13 08:05:57;;;;;;;18.70;8.07;;;7.80;80.60;;;;;;6284602;28;20281;-78
2023/03/13 08:09:01;;;;;;;18.63;8.53;;;7.80;80.70;;;;;;6272055;28;20324;-79
2023/03/13 08:12:04;;;;;;;24.63;8.63;;;7.80;80.90;;;;;;6267830;28;20634;-79
2023/03/13 08:15:10;;;;;;;25.13;8.23;;;7.80;81.10;;;;;;6277809;28;20247;-78
2023/03/13 08:18:14;;;;;;;20.10;8.00;;;7.80;81.10;;;;;;6274618;28;20261;-79
2023/03/13 08:21:20;;;;;;;20.40;7.87;;;7.80;81.30;;;;;;6285753;28;20697;-79
2023/03/13 08:24:23;;;;;;;15.60;8.27;;;7.90;81.50;;;;;;6280022;28;20229;-77
2023/03/13 08:27:29;;;;;;;18.17;7.53;;;8.00;81.50;;;;;;6286116;28;20241;-77
2023/03/13 08:30:32;;;;;;;18.50;7.60;;;8.00;81.60;;;;;;6282129;28;20245;-79
2023/03/13 08:33:35;;;;;;;14.23;6.90;;;8.10;81.40;;;;;;6286327;28;20287;-78
2023/03/13 08:36:41;;;;;;;16.13;7.90;;;8.10;81.40;;;;;;6281117;28;20232;-79
2023/03/13 08:39:44;;;;;;;11.47;6.77;;;8.10;81.70;;;;;;6292717;28;20229;-79
2023/03/13 08:42:47;;;;;;;12.87;6.80;;;8.10;81.80;;;;;;6273055;28;20316;-79
2023/03/13 08:45:55;;;;;;;21.40;7.17;;;8.20;81.50;;;;;;6284657;28;20230;-79
2023/03/13 08:48:58;;;;;;;11.83;6.40;;;8.10;81.80;;;;;;6264608;28;20236;-77
2023/03/13 08:52:04;;;;;;;13.40;5.83;;;8.20;81.80;;;;;;6288811;28;20237;-77
2023/03/13 08:55:08;;;;;;;10.83;6.27;;;8.30;81.80;;;;;;6280981;28;20232;-78
2023/03/13 08:58:11;;;;;;;12.10;6.17;;;8.30;81.70;;;;;;6279921;28;20236;-77
2023/03/13 09:01:15;;;;;;;14.03;7.07;;;8.30;81.60;;;;;;6267441;28;20709;-77
2023/03/13 09:04:19;;;;;;;16.87;8.33;;;8.30;81.80;;;;;;6289334;28;20240;-78
2023/03/13 09:07:23;;;;;;;16.83;6.50;;;8.30;81.70;;;;;;6291608;28;20241;-79
2023/03/13 09:10:26;;;;;;;14.20;6.43;;;8.30;81.70;;;;;;6267183;28;20622;-80
2023/03/13 09:13:31;;;;;;;9.27;6.20;;;8.40;81.60;;;;;;6284959;28;20244;-78
2023/03/13 09:16:35;;;;;;;18.37;6.27;;;8.40;81.50;;;;;;6294637;27;20317;-81
2023/03/13 09:19:38;;;;;;;15.57;6.73;;;8.50;81.50;;;;;;6272174;28;20241;-79
2023/03/13 09:23:01;;;;;;;11.07;5.70;;;8.60;81.00;;;;;;6273439;28;20240;-77
2023/03/13 09:26:04;;;;;;;16.93;6.83;;;8.70;80.60;;;;;;6289463;28;20592;-80
2023/03/13 09:29:07;;;;;;;9.50;5.50;;;8.70;80.50;;;;;;6279022;28;20265;-80
2023/03/13 09:32:11;;;;;;;11.30;5.33;;;8.80;80.20;;;;;;6290333;28;20230;-79
2023/03/13 09:35:15;;;;;;;13.17;5.00;;;8.90;80.00;;;;;;6284343;28;20248;-80
2023/03/13 09:38:20;;;;;;;8.70;5.10;;;9.00;79.70;;;;;;6276173;28;20896;-80
2023/03/13 09:41:30;;;;;;;9.53;4.70;;;8.90;79.70;;;;;;6283619;28;20245;-78
2023/03/13 09:44:40;;;;;;;9.17;5.20;;;9.00;79.70;;;;;;6265913;28;20718;-78
2023/03/13 09:47:46;;;;;;;9.73;5.90;;;9.00;79.90;;;;;;6281879;28;20261;-78
2023/03/13 09:50:59;;;;;;;8.70;4.60;;;9.00;79.80;;;;;;6272532;28;20236;-79
2023/03/13 09:54:08;;;;;;;5.93;5.23;;;9.00;79.90;;;;;;6288707;28;20364;-80
2023/03/13 09:57:18;;;;;;;8.80;6.67;;;9.10;79.80;;;;;;6273422;28;20234;-79
2023/03/13 10:00:25;;;;;;;11.30;5.00;;;9.20;79.80;;;;;;6270221;28;20242;-81
2023/03/13 10:03:31;;;;;;;8.07;4.93;;;9.20;79.50;;;;;;6273931;28;20487;-79
2023/03/13 10:06:39;;;;;;;10.10;5.10;;;9.20;79.30;;;;;;6270883;28;20721;-78
2023/03/13 10:09:44;;;;;;;5.90;4.90;;;9.30;79.30;;;;;;6257989;28;20240;-78
2023/03/13 10:12:50;;;;;;;10.27;4.80;;;9.40;79.20;;;;;;6292203;28;20872;-78
2023/03/13 10:15:56;;;;;;;9.27;4.97;;;9.40;79.10;;;;;;6250437;28;20260;-79
2023/03/13 10:19:02;;;;;;;9.03;4.30;;;9.40;79.10;;;;;;6281964;28;20257;-78
2023/03/13 10:22:14;;;;;;;7.53;4.33;;;9.50;79.10;;;;;;6274850;28;20230;-79
2023/03/13 10:25:28;;;;;;;6.07;4.63;;;9.50;79.20;;;;;;6286138;28;20739;-80
2023/03/13 10:28:32;;;;;;;9.20;4.93;;;9.60;79.20;;;;;;6269513;28;20245;-78
2023/03/13 10:31:37;;;;;;;5.27;4.70;;;9.60;79.40;;;;;;6270325;28;20611;-79
2023/03/13 10:34:52;;;;;;;6.90;4.23;;;9.80;78.70;;;;;;6285830;28;20233;-79
2023/03/13 10:38:03;;;;;;;4.60;4.27;;;9.80;78.80;;;;;;6287185;28;20248;-78
2023/03/13 10:41:18;;;;;;;6.03;4.27;;;9.90;78.60;;;;;;6276418;28;20253;-77
2023/03/13 10:44:23;;;;;;;5.67;4.10;;;10.00;78.60;;;;;;6288344;28;20237;-75
2023/03/13 10:47:26;;;;;;;5.00;4.50;;;10.10;78.40;;;;;;6276227;27;20970;-81
2023/03/13 10:50:34;;;;;;;5.40;4.90;;;10.30;78.10;;;;;;6272787;28;20249;-77
2023/03/13 10:53:37;;;;;;;5.20;4.70;;;10.40;77.80;;;;;;6271240;28;20248;-81
2023/03/13 10:56:42;;;;;;;4.23;3.83;;;10.50;77.80;;;;;;6276084;28;20230;-80
2023/03/13 10:59:47;;;;;;;7.47;4.40;;;10.70;77.60;;;;;;6261905;28;20706;-78
2023/03/13 11:02:50;;;;;;;4.43;3.70;;;10.90;77.00;;;;;;6275495;27;20258;-76
2023/03/13 11:05:58;;;;;;;3.90;3.57;;;11.20;75.80;;;;;;6277165;28;20710;-77
2023/03/13 11:09:12;;;;;;;4.23;3.93;;;11.30;75.50;;;;;;6269767;28;20237;-77
2023/03/13 11:12:20;;;;;;;4.13;3.33;;;11.30;75.70;;;;;;6266726;28;20242;-79
2023/03/13 11:15:28;;;;;;;5.00;3.93;;;11.30;75.90;;;;;;6262501;28;20230;-80
2023/03/13 11:18:40;;;;;;;4.33;3.93;;;11.30;75.70;;;;;;6284891;28;20237;-79
2023/03/13 11:21:51;;;;;;;4.30;3.90;;;11.50;75.60;;;;;;6275624;28;20242;-79
2023/03/13 11:25:03;;;;;;;3.80;3.50;;;11.90;75.20;;;;;;6283226;27;20311;-81
2023/03/13 11:28:25;;;;;;;3.30;3.10;;;12.10;74.10;;;;;;6264758;28;20243;-80
2023/03/13 11:31:33;;;;;;;3.77;3.57;;;12.20;73.40;;;;;;6272396;28;20248;-79
2023/03/13 11:34:44;;;;;;;3.57;3.37;;;12.20;73.30;;;;;;6282138;28;20502;-81
2023/03/13 11:37:51;;;;;;;3.67;3.47;;;12.40;73.00;;;;;;6265052;28;20226;-81
2023/03/13 11:41:02;;;;;;;3.53;3.23;;;12.30;73.20;;;;;;6272472;28;20236;-79
2023/03/13 11:44:28;;;;;;;3.57;3.30;;;12.40;73.40;;;;;;6271266;28;20236;-81
2023/03/13 11:47:48;;;;;;;3.17;3.07;;;12.50;72.80;;;;;;6271367;28;20372;-81
2023/03/13 11:50:55;;;;;;;3.50;3.20;;;12.70;72.30;;;;;;6283883;28;20241;-80
2023/03/13 11:54:31;;;;;;;2.70;2.60;;;12.70;72.30;;;;;;6289445;28;20676;-79
2023/03/13 11:57:43;;;;;;;3.00;2.90;;;12.70;72.20;;;;;;6304620;28;20248;-80
2023/03/13 12:00:51;;;;;;;3.07;2.87;;;12.70;72.30;;;;;;6320708;28;20259;-77
2023/03/13 12:04:02;;;;;;;3.50;3.37;;;12.90;71.90;;;;;;6319952;28;20233;-78
2023/03/13 12:07:10;;;;;;;3.20;3.10;;;12.80;72.00;;;;;;6311245;28;20228;-79
2023/03/13 12:10:18;;;;;;;3.00;2.90;;;12.90;71.90;;;;;;6309932;28;20275;-79
2023/03/13 12:13:27;;;;;;;2.93;2.93;;;13.00;71.90;;;;;;6314745;28;20420;-80
2023/03/13 12:16:40;;;;;;;2.77;2.67;;;13.10;71.30;;;;;;6281821;28;20250;-79
2023/03/13 12:19:51;;;;;;;3.33;3.23;;;13.00;72.10;;;;;;6260062;28;20617;-80
2023/03/13 12:23:00;;;;;;;2.90;2.80;;;13.10;71.80;;;;;;6276465;27;20926;-83
2023/03/13 12:26:08;;;;;;;2.80;2.80;;;13.30;71.50;;;;;;6275510;28;20253;-80
2023/03/13 12:29:20;;;;;;;2.90;2.80;;;13.40;70.90;;;;;;6272850;28;20248;-82
2023/03/13 12:32:31;;;;;;;2.77;2.67;;;13.50;71.00;;;;;;6263727;28;20606;-80
2023/03/13 12:35:36;;;;;;;4.07;3.40;;;13.50;71.10;;;;;;6275691;28;20248;-79
2023/03/13 12:38:43;;;;;;;2.27;2.27;;;13.60;70.50;;;;;;6307825;28;20284;-79
2023/03/13 12:41:54;;;;;;;2.67;2.57;;;13.90;69.90;;;;;;6319374;28;20222;-80
2023/03/13 12:44:58;;;;;;;2.43;2.40;;;14.00;69.70;;;;;;6319452;28;20225;-78
2023/03/13 12:48:30;;;;;;;2.67;2.57;;;14.10;69.20;;;;;;6316087;28;20238;-80
2023/03/13 12:51:49;;;;;;;2.50;2.40;;;14.30;69.20;;;;;;6311668;28;20320;-80
2023/03/13 12:55:08;;;;;;;2.50;2.40;;;14.30;69.00;;;;;;6264777;28;20237;-81
2023/03/13 12:58:25;;;;;;;2.97;2.77;;;14.60;68.30;;;;;;6288690;28;20241;-80
2023/03/13 13:01:34;;;;;;;2.60;2.50;;;14.70;67.50;;;;;;6274845;28;20252;-79
2023/03/13 13:04:45;;;;;;;2.30;2.30;;;14.80;67.50;;;;;;6282502;28;20913;-81
2023/03/13 13:07:55;;;;;;;2.50;2.40;;;14.90;67.10;;;;;;6288104;28;20400;-83
2023/03/13 13:11:31;;;;;;;2.40;2.30;;;15.10;67.00;;;;;;6272252;28;20619;-79
2023/03/13 13:15:04;;;;;;;2.20;2.20;;;15.30;66.80;;;;;;6273557;28;20279;-80
2023/03/13 13:18:23;;;;;;;2.20;2.20;;;15.60;65.60;;;;;;6252605;28;20236;-81
2023/03/13 13:21:29;;;;;;;3.07;2.40;;;15.80;65.20;;;;;;6287042;28;20245;-77
2023/03/13 13:24:49;;;;;;;2.30;2.20;;;15.80;65.00;;;;;;6290598;28;20244;-78
2023/03/13 13:27:52;;;;;;;2.30;2.30;;;15.60;65.70;;;;;;6277680;28;20241;-80
2023/03/13 13:30:56;;;;;;;2.13;2.13;;;15.60;65.90;;;;;;6261645;28;21432;-79
2023/03/13 13:33:59;;;;;;;2.43;2.33;;;15.60;65.40;;;;;;6274383;28;20902;-79
2023/03/13 13:37:26;;;;;;;2.17;2.10;;;15.80;65.20;;;;;;6290860;28;20229;-79
2023/03/13 13:40:31;;;;;;;2.33;2.23;;;15.80;64.80;;;;;;6280469;28;20304;-79
2023/03/13 13:43:36;;;;;;;3.70;2.30;;;15.70;65.10;;;;;;6280344;28;20752;-80
2023/03/13 13:46:45;;;;;;;2.20;2.10;;;15.80;64.50;;;;;;6277052;28;20238;-78
2023/03/13 13:49:56;;;;;;;5.13;2.60;;;15.80;64.70;;;;;;6279302;28;20237;-79
2023/03/13 13:53:32;;;;;;;2.27;2.20;;;15.80;64.50;;;;;;6273950;28;20268;-81
2023/03/13 13:56:43;;;;;;;2.20;2.20;;;15.60;64.60;;;;;;6276744;28;20250;-81
2023/03/13 13:59:50;;;;;;;2.57;2.40;;;15.60;64.40;;;;;;6273152;27;20238;-80
2023/03/13 14:02:54;;;;;;;2.37;2.37;;;15.60;64.60;;;;;;6282183;28;20280;-82
2023/03/13 14:06:03;;;;;;;3.47;2.37;;;15.70;64.70;;;;;;6291828;28;20489;-81
2023/03/13 14:09:31;;;;;;;2.20;2.20;;;15.90;64.10;;;;;;6274300;28;20338;-81
2023/03/13 14:12:36;;;;;;;2.33;2.23;;;15.80;64.10;;;;;;6278147;28;20246;-82
2023/03/13 14:15:43;;;;;;;2.90;2.80;;;15.80;64.40;;;;;;6273764;28;20241;-81
2023/03/13 14:18:47;;;;;;;2.13;2.13;;;15.80;64.50;;;;;;6286195;28;20232;-81
2023/03/13 14:21:51;;;;;;;2.70;2.60;;;16.00;64.30;;;;;;6267454;28;20241;-80
2023/03/13 14:24:58;;;;;;;2.90;2.80;;;16.00;64.10;;;;;;6266733;28;20272;-82
2023/03/13 14:28:02;;;;;;;3.13;2.73;;;16.00;64.40;;;;;;6270748;28;20242;-80
2023/03/13 14:31:05;;;;;;;2.80;2.73;;;16.00;64.50;;;;;;6268770;28;20625;-81
2023/03/13 14:34:11;;;;;;;2.93;2.83;;;16.00;64.50;;;;;;6274413;28;20226;-79
2023/03/13 14:37:33;;;;;;;2.57;2.40;;;15.80;65.00;;;;;;6287001;27;20772;-81
2023/03/13 14:40:39;;;;;;;2.77;2.63;;;15.80;64.70;;;;;;6275886;28;20288;-79
2023/03/13 14:43:43;;;;;;;2.47;2.47;;;15.80;64.80;;;;;;6276927;28;20238;-80
2023/03/13 14:46:46;;;;;;;2.73;2.60;;;15.70;64.70;;;;;;6286981;28;20243;-80
2023/03/13 14:49:57;;;;;;;3.10;3.00;;;15.60;64.90;;;;;;6289484;28;20240;-81
2023/03/13 14:53:04;;;;;;;2.90;2.70;;;15.60;65.40;;;;;;6289034;28;20225;-81
2023/03/13 14:56:14;;;;;;;2.67;2.57;;;15.50;65.50;;;;;;6288168;28;20234;-81
2023/03/13 14:59:23;;;;;;;2.67;2.57;;;15.60;65.20;;;;;;6271789;28;20240;-82
2023/03/13 15:02:28;;;;;;;2.43;2.43;;;15.60;65.20;;;;;;6270450;28;20241;-80
2023/03/13 15:05:33;;;;;;;2.77;2.73;;;15.60;65.20;;;;;;6288917;28;20240;-81
2023/03/13 15:08:38;;;;;;;2.67;2.63;;;15.60;65.20;;;;;;6289894;28;20622;-80
2023/03/13 15:11:52;;;;;;;2.97;2.87;;;15.60;65.10;;;;;;6293204;28;20240;-79
2023/03/13 15:14:58;;;;;;;4.83;2.80;;;15.60;65.20;;;;;;6267316;28;20366;-80
2023/03/13 15:18:01;;;;;;;2.70;2.60;;;15.50;65.00;;;;;;6274860;28;20327;-81
2023/03/13 15:21:21;;;;;;;3.13;2.93;;;15.60;65.00;;;;;;6273034;28;20230;-81
2023/03/13 15:24:24;;;;;;;2.90;2.80;;;15.60;64.80;;;;;;6265686;28;20376;-81
2023/03/13 15:27:30;;;;;;;2.90;2.60;;;15.60;65.00;;;;;;6277708;28;20248;-80
2023/03/13 15:30:33;;;;;;;2.87;2.67;;;15.50;65.00;;;;;;6284221;28;20237;-80
2023/03/13 15:33:36;;;;;;;2.30;2.30;;;15.60;65.10;;;;;;6291196;28;20304;-80
2023/03/13 15:36:41;;;;;;;2.60;2.50;;;15.60;64.80;;;;;;6297994;28;20730;-82
2023/03/13 15:39:45;;;;;;;2.67;2.40;;;15.50;65.10;;;;;;6275978;28;20233;-81
2023/03/13 15:42:49;;;;;;;2.70;2.60;;;15.50;64.90;;;;;;6276778;28;20225;-79
2023/03/13 15:45:52;;;;;;;2.63;2.53;;;15.50;64.70;;;;;;6292601;28;20310;-81
2023/03/13 15:48:55;;;;;;;3.07;2.97;;;15.50;64.90;;;;;;6299605;27;20271;-81
2023/03/13 15:51:58;;;;;;;3.00;2.83;;;15.40;65.00;;;;;;6290049;28;20342;-81
2023/03/13 15:55:02;;;;;;;2.77;2.47;;;15.30;65.20;;;;;;6273410;28;20311;-79
2023/03/13 15:58:09;;;;;;;3.00;2.80;;;15.30;65.30;;;;;;6274147;28;20490;-81
2023/03/13 16:01:14;;;;;;;2.70;2.60;;;15.20;65.50;;;;;;6282517;28;20257;-81
2023/03/13 16:04:17;;;;;;;3.03;2.87;;;15.10;65.90;;;;;;6262164;28;20698;-81
2023/03/13 16:07:21;;;;;;;2.80;2.70;;;15.00;65.90;;;;;;6286233;28;20837;-82